INDIA METEOROLOGICAL DEPARTMENT, R.M.C. NEW DELHI
Dated:23 - 4 - 2017
METARS OF ALTERNATE AIRPORTS
Delhi      
VIDP 231730Z 00000KT 3000 HZ FEW040 34/12 Q1004 NOSIG=
Amritsar   
VIAR 231730Z 20003KT 3000 TSRA SCT030 FEW035CB BKN090 22/15 Q1007 NOSIG=
Lucknow    
VILK 231730Z 03003KT 2000 HZ SCT018 FEW030CB BKN100 33/16 Q1003=
Jaipur     
VIJP 231730Z 30007KT 4000 HZ SCT040 33/06 Q1006 NOSIG=
Ahmedabad  
VAAH 231730Z 22008KT 4000 FU NSC 30/20 Q1007 NOSIG=
Mumbai     
VABB 231730Z 24006KT 3500 HZ FEW020 SCT025 29/22 Q1010 NOSIG=